Time;durP1;ratioP1;P1;durP2;ratioP2;P2;SDS_P1;SDS_P2;PMS_P1;PMS_P2;Temp;Humidity;BMP_temperature;BMP_pressure;BME280_temperature;BME280_humidity;BME280_pressure;Samples;Min_cycle;Max_cycle;Signal;HPM_P1;HPM_P2
2022/11/26 00:01:14;;;;;;;48.90;17.77;;;6.00;95.70;;;;;;4994862;28;20181;-91
2022/11/26 00:03:40;;;;;;;44.70;17.90;;;5.90;95.70;;;;;;4994688;28;20181;-91
2022/11/26 00:06:24;;;;;;;44.37;17.87;;;6.00;95.70;;;;;;4994148;28;20201;-91
2022/11/26 00:08:50;;;;;;;51.17;17.63;;;5.90;95.70;;;;;;4994226;28;20194;-91
2022/11/26 00:11:16;;;;;;;52.17;18.37;;;5.90;95.70;;;;;;4994392;28;20589;-92
2022/11/26 00:13:42;;;;;;;58.90;18.20;;;5.90;95.80;;;;;;4995030;28;20185;-91
2022/11/26 00:16:16;;;;;;;45.67;16.63;;;5.80;95.70;;;;;;4994830;28;20193;-91
2022/11/26 00:18:44;;;;;;;48.60;17.60;;;5.80;95.80;;;;;;4994608;28;20248;-91
2022/11/26 00:21:19;;;;;;;57.00;16.80;;;5.80;95.80;;;;;;4995670;28;20240;-92
2022/11/26 00:23:45;;;;;;;45.20;17.53;;;5.80;95.80;;;;;;4994438;28;20179;-91
2022/11/26 00:26:18;;;;;;;44.07;18.23;;;5.80;95.80;;;;;;4994685;28;20284;-91
2022/11/26 00:28:55;;;;;;;56.77;17.83;;;5.80;95.80;;;;;;4995141;28;20182;-91
2022/11/26 00:31:21;;;;;;;58.40;18.43;;;5.80;95.80;;;;;;4993611;28;20181;-91
2022/11/26 00:33:47;;;;;;;51.10;17.63;;;5.70;95.80;;;;;;4993151;28;20200;-91
2022/11/26 00:36:23;;;;;;;60.07;18.70;;;5.70;95.90;;;;;;4994325;28;20727;-91
2022/11/26 00:38:53;;;;;;;46.37;17.63;;;5.70;95.90;;;;;;4993425;28;20170;-91
2022/11/26 00:41:25;;;;;;;52.40;17.33;;;5.70;95.90;;;;;;4993281;28;20177;-91
2022/11/26 00:43:51;;;;;;;60.07;17.40;;;5.70;95.90;;;;;;4993447;28;20174;-91
2022/11/26 00:46:19;;;;;;;51.97;18.63;;;5.70;95.90;;;;;;4994362;28;20682;-92
2022/11/26 00:48:45;;;;;;;66.17;26.57;;;5.70;95.90;;;;;;4992946;28;20182;-91
2022/11/26 00:51:26;;;;;;;61.00;24.43;;;5.80;95.90;;;;;;4993650;28;20691;-90
2022/11/26 00:53:54;;;;;;;39.40;18.23;;;5.80;96.00;;;;;;4992486;28;20275;-91
2022/11/26 00:56:21;;;;;;;45.97;18.13;;;5.80;95.90;;;;;;4993982;28;20664;-91
2022/11/26 00:58:48;;;;;;;53.67;18.80;;;5.70;95.90;;;;;;4992700;28;20209;-91
2022/11/26 01:01:26;;;;;;;49.40;19.00;;;5.70;95.90;;;;;;4993246;28;20209;-91
2022/11/26 01:03:52;;;;;;;54.17;19.83;;;5.70;95.90;;;;;;4994217;28;20602;-91
2022/11/26 01:06:32;;;;;;;44.50;17.73;;;5.70;96.00;;;;;;4992868;28;20201;-91
2022/11/26 01:08:58;;;;;;;36.80;17.10;;;5.70;96.00;;;;;;4992473;28;20197;-90
2022/11/26 01:11:23;;;;;;;51.20;18.63;;;5.70;96.00;;;;;;4993615;28;20173;-90
2022/11/26 01:13:52;;;;;;;44.10;18.53;;;5.60;96.00;;;;;;4993814;28;20245;-89
2022/11/26 01:16:26;;;;;;;53.30;19.40;;;5.60;96.00;;;;;;4995716;28;20190;-91
2022/11/26 01:18:54;;;;;;;45.77;18.57;;;5.60;96.00;;;;;;4996785;28;20168;-91
2022/11/26 01:21:21;;;;;;;51.40;18.53;;;5.60;96.00;;;;;;4997049;28;20198;-91
2022/11/26 01:23:47;;;;;;;48.83;20.00;;;5.60;96.00;;;;;;4996737;28;20260;-91
2022/11/26 01:26:35;;;;;;;46.37;18.47;;;5.60;96.00;;;;;;4996888;28;20207;-91
2022/11/26 01:29:01;;;;;;;60.43;18.30;;;5.50;96.00;;;;;;4996537;28;20636;-91
2022/11/26 01:31:28;;;;;;;43.87;18.63;;;5.50;96.00;;;;;;4996714;28;20184;-91
2022/11/26 01:33:54;;;;;;;53.53;18.70;;;5.50;96.00;;;;;;4997602;28;20177;-91
2022/11/26 01:36:27;;;;;;;56.60;19.20;;;5.50;96.00;;;;;;4998072;28;20324;-91
2022/11/26 01:38:55;;;;;;;51.00;19.23;;;5.50;96.00;;;;;;4997630;28;20250;-91
2022/11/26 01:41:43;;;;;;;54.70;19.23;;;5.40;96.00;;;;;;4996438;28;20177;-91
2022/11/26 01:44:22;;;;;;;52.13;17.93;;;5.50;96.00;;;;;;4996487;28;20257;-91
2022/11/26 01:46:49;;;;;;;48.53;19.70;;;5.40;96.00;;;;;;4997670;28;20188;-92
2022/11/26 01:49:33;;;;;;;39.97;17.33;;;5.30;95.90;;;;;;4996672;28;20215;-92
2022/11/26 01:52:10;;;;;;;51.40;20.00;;;5.30;96.00;;;;;;4996235;28;20174;-91
2022/11/26 01:54:38;;;;;;;41.50;17.77;;;5.30;96.00;;;;;;4997440;28;20172;-91
2022/11/26 01:57:19;;;;;;;52.00;17.57;;;5.30;96.00;;;;;;4996492;28;20170;-91
2022/11/26 01:59:51;;;;;;;49.03;17.57;;;5.30;96.00;;;;;;4996596;28;20188;-91
2022/11/26 02:02:18;;;;;;;37.80;16.90;;;5.30;96.00;;;;;;4997083;28;20204;-91
2022/11/26 02:04:58;;;;;;;50.83;17.57;;;5.30;96.00;;;;;;4996631;28;20212;-91
2022/11/26 02:07:24;;;;;;;45.20;16.70;;;5.30;96.00;;;;;;4996253;28;20192;-91
2022/11/26 02:09:49;;;;;;;45.70;17.27;;;5.40;96.10;;;;;;4996341;28;20281;-91
2022/11/26 02:12:15;;;;;;;42.93;15.63;;;5.40;96.10;;;;;;4996590;28;20181;-91
2022/11/26 02:14:43;;;;;;;51.00;16.10;;;5.30;96.00;;;;;;4996456;28;20284;-91
2022/11/26 02:17:17;;;;;;;48.70;17.20;;;5.30;96.00;;;;;;4995882;28;20177;-91
2022/11/26 02:20:15;;;;;;;42.13;15.63;;;5.30;96.00;;;;;;4997059;28;20176;-91
2022/11/26 02:23:12;;;;;;;55.67;16.87;;;5.30;96.10;;;;;;4995540;28;20174;-91
2022/11/26 02:25:49;;;;;;;49.37;16.80;;;5.20;96.00;;;;;;4995555;28;20288;-92
2022/11/26 02:28:37;;;;;;;48.13;17.47;;;5.20;96.10;;;;;;4995667;28;20197;-91
2022/11/26 02:31:32;;;;;;;52.07;18.37;;;5.20;96.10;;;;;;4996866;28;20213;-91
2022/11/26 02:34:13;;;;;;;47.50;18.43;;;5.10;96.00;;;;;;4991517;28;20186;-90
2022/11/26 02:36:57;;;;;;;48.27;17.30;;;5.00;96.00;;;;;;4995459;28;20320;-91
2022/11/26 02:39:25;;;;;;;51.67;18.17;;;5.00;96.10;;;;;;4995819;28;20247;-90
2022/11/26 02:41:54;;;;;;;47.70;19.43;;;5.00;96.10;;;;;;4995132;28;20204;-91
2022/11/26 02:44:23;;;;;;;42.67;17.57;;;5.10;96.10;;;;;;4995913;28;20272;-91
2022/11/26 02:47:07;;;;;;;42.50;17.70;;;5.10;96.10;;;;;;4995167;28;20196;-91
2022/11/26 02:49:35;;;;;;;46.30;17.17;;;5.20;96.20;;;;;;4995931;28;20192;-91
2022/11/26 02:52:03;;;;;;;55.57;16.60;;;5.20;96.20;;;;;;4995071;28;20232;-91
2022/11/26 02:54:31;;;;;;;41.13;17.57;;;5.10;96.10;;;;;;4996181;28;20169;-91
2022/11/26 02:57:01;;;;;;;55.93;19.13;;;5.10;96.10;;;;;;4995672;28;20667;-91
2022/11/26 02:59:27;;;;;;;70.70;19.50;;;5.10;96.10;;;;;;4996044;28;20177;-90
2022/11/26 03:02:32;;;;;;;74.37;22.67;;;5.20;96.20;;;;;;4994749;28;20181;-91
2022/11/26 03:05:00;;;;;;;58.10;19.13;;;5.20;96.20;;;;;;5028072;28;20209;-91
2022/11/26 03:07:30;;;;;;;53.70;19.00;;;5.10;96.20;;;;;;4994554;28;20662;-92
2022/11/26 03:09:58;;;;;;;55.43;19.90;;;5.10;96.20;;;;;;4994657;28;20201;-91
2022/11/26 03:12:24;;;;;;;55.13;19.00;;;5.10;96.20;;;;;;4994736;28;20177;-91
2022/11/26 03:14:50;;;;;;;45.23;17.90;;;5.10;96.20;;;;;;4994550;28;20174;-91
2022/11/26 03:17:17;;;;;;;59.30;19.63;;;5.10;96.20;;;;;;4995243;28;20184;-91
2022/11/26 03:19:43;;;;;;;51.70;18.50;;;5.10;96.20;;;;;;4994654;28;20184;-91
2022/11/26 03:22:09;;;;;;;79.73;21.13;;;5.20;96.30;;;;;;4995332;28;20176;-92
2022/11/26 03:24:35;;;;;;;59.80;19.63;;;5.10;96.20;;;;;;4994552;28;20227;-91
2022/11/26 03:27:00;;;;;;;54.03;19.67;;;5.10;96.30;;;;;;4994282;28;20185;-90
2022/11/26 03:29:26;;;;;;;51.93;18.83;;;5.20;96.30;;;;;;4994560;28;20204;-91
2022/11/26 03:31:52;;;;;;;58.47;19.23;;;5.20;96.30;;;;;;4994163;28;20181;-91
2022/11/26 03:34:17;;;;;;;48.03;18.60;;;5.20;96.30;;;;;;4994558;28;20527;-91
2022/11/26 03:36:43;;;;;;;47.47;19.63;;;5.20;96.30;;;;;;4993982;28;20201;-91
2022/11/26 03:39:08;;;;;;;46.07;19.53;;;5.20;96.30;;;;;;4994806;28;20181;-91
2022/11/26 03:41:34;;;;;;;48.40;19.60;;;5.10;96.30;;;;;;4994975;28;20181;-91
2022/11/26 03:44:00;;;;;;;58.53;21.03;;;5.10;96.30;;;;;;4993900;28;20183;-91
2022/11/26 03:46:25;;;;;;;59.37;20.93;;;5.10;96.30;;;;;;4995313;28;20191;-91
2022/11/26 03:48:51;;;;;;;51.70;21.23;;;5.20;96.30;;;;;;4994045;28;20240;-91
2022/11/26 03:51:17;;;;;;;48.07;19.63;;;5.20;96.30;;;;;;4994099;28;20200;-90
2022/11/26 03:53:42;;;;;;;46.33;20.97;;;5.10;96.30;;;;;;4994662;28;20522;-91
2022/11/26 03:56:08;;;;;;;54.87;19.53;;;5.10;96.30;;;;;;4994519;28;20636;-91
2022/11/26 03:58:34;;;;;;;50.00;21.10;;;5.00;96.30;;;;;;4994227;28;20180;-91
2022/11/26 04:01:05;;;;;;;43.13;20.67;;;4.90;96.30;;;;;;4994342;28;20648;-90
2022/11/26 04:03:31;;;;;;;48.13;21.60;;;4.90;96.30;;;;;;4994983;28;20177;-91
2022/11/26 04:05:56;;;;;;;44.57;21.13;;;5.00;96.30;;;;;;4994044;28;20209;-91
2022/11/26 04:08:22;;;;;;;57.03;22.80;;;5.00;96.40;;;;;;4993952;28;20227;-91
2022/11/26 04:10:47;;;;;;;57.40;21.83;;;5.00;96.40;;;;;;4993946;28;20204;-91
2022/11/26 04:13:13;;;;;;;44.63;22.87;;;4.90;96.40;;;;;;4994341;28;20174;-91
2022/11/26 04:15:41;;;;;;;55.80;22.47;;;4.90;96.30;;;;;;4995349;28;20192;-92
2022/11/26 04:18:07;;;;;;;47.60;20.90;;;4.90;96.40;;;;;;4994162;28;20257;-91
2022/11/26 04:20:33;;;;;;;52.73;22.17;;;4.80;96.30;;;;;;4993656;28;20239;-91
2022/11/26 04:23:01;;;;;;;52.77;22.23;;;4.80;96.30;;;;;;4994339;28;20193;-91
2022/11/26 04:25:26;;;;;;;54.77;20.83;;;4.70;96.30;;;;;;4994136;28;20208;-91
2022/11/26 04:27:52;;;;;;;41.00;19.70;;;4.60;96.30;;;;;;4994001;28;20180;-91
2022/11/26 04:30:18;;;;;;;44.40;21.60;;;4.50;96.20;;;;;;4995291;28;20279;-91
2022/11/26 04:32:43;;;;;;;44.53;19.10;;;4.40;96.30;;;;;;4997329;28;20183;-91
2022/11/26 04:35:09;;;;;;;43.80;20.97;;;4.50;96.30;;;;;;4993891;28;20287;-91
2022/11/26 04:37:35;;;;;;;40.93;20.53;;;4.50;96.30;;;;;;4995541;28;20175;-91
2022/11/26 04:40:00;;;;;;;40.80;21.27;;;4.50;96.30;;;;;;4995306;28;20542;-91
2022/11/26 04:42:26;;;;;;;45.00;21.43;;;4.30;96.30;;;;;;4993956;28;20280;-91
2022/11/26 04:44:52;;;;;;;42.23;21.03;;;4.30;96.30;;;;;;4993565;28;20204;-91
2022/11/26 04:47:20;;;;;;;72.27;22.63;;;4.20;96.30;;;;;;4993722;28;20181;-91
2022/11/26 04:49:45;;;;;;;118.17;23.43;;;4.10;96.30;;;;;;4995388;28;20239;-92
2022/11/26 04:52:11;;;;;;;228.47;24.40;;;4.00;96.20;;;;;;4997211;28;20173;-91
2022/11/26 04:54:37;;;;;;;152.67;21.97;;;3.80;96.20;;;;;;4999187;28;20267;-91
2022/11/26 04:57:02;;;;;;;89.30;20.30;;;3.80;96.20;;;;;;4999344;28;20177;-91
2022/11/26 04:59:28;;;;;;;84.83;20.63;;;3.80;96.20;;;;;;4997870;28;20223;-91
2022/11/26 05:01:54;;;;;;;92.73;21.77;;;3.70;96.20;;;;;;4997209;28;20188;-91
2022/11/26 05:04:20;;;;;;;59.70;20.07;;;3.70;96.30;;;;;;4997376;28;20201;-91
2022/11/26 05:06:45;;;;;;;89.37;21.00;;;3.70;96.30;;;;;;4998739;28;20210;-92
2022/11/26 05:09:11;;;;;;;203.47;24.93;;;3.70;96.30;;;;;;4997647;28;20254;-90
2022/11/26 05:11:37;;;;;;;193.57;26.03;;;3.60;96.20;;;;;;4998768;28;20289;-92
2022/11/26 05:14:03;;;;;;;196.07;25.60;;;3.50;96.30;;;;;;4999224;28;20528;-90
2022/11/26 05:16:28;;;;;;;211.20;27.37;;;3.60;96.30;;;;;;4997953;28;20224;-91
2022/11/26 05:18:54;;;;;;;121.90;22.93;;;3.50;96.30;;;;;;4996912;28;20180;-91
2022/11/26 05:21:20;;;;;;;137.77;24.17;;;3.60;96.30;;;;;;4997981;28;20187;-91
2022/11/26 05:23:45;;;;;;;91.50;22.77;;;3.60;96.40;;;;;;4997869;28;20182;-91
2022/11/26 05:26:11;;;;;;;74.63;22.57;;;3.70;96.40;;;;;;4997592;28;20200;-91
2022/11/26 05:28:36;;;;;;;141.13;24.87;;;3.70;96.40;;;;;;4996832;28;20211;-91
2022/11/26 05:31:03;;;;;;;73.40;21.90;;;3.70;96.40;;;;;;4997602;28;20245;-91
2022/11/26 05:33:29;;;;;;;111.10;25.07;;;3.80;96.40;;;;;;4997528;28;20182;-91
2022/11/26 05:35:55;;;;;;;145.67;26.97;;;3.80;96.40;;;;;;4996064;28;20201;-91
2022/11/26 05:38:22;;;;;;;102.27;25.33;;;3.80;96.40;;;;;;4996281;28;20756;-91
2022/11/26 05:40:48;;;;;;;159.60;26.60;;;3.80;96.40;;;;;;4997346;28;20213;-91
2022/11/26 05:43:14;;;;;;;187.27;27.83;;;3.70;96.40;;;;;;4997074;28;20218;-91
2022/11/26 05:45:39;;;;;;;74.37;23.73;;;3.50;96.40;;;;;;4995885;28;20202;-92
2022/11/26 05:48:05;;;;;;;61.77;23.37;;;3.50;96.40;;;;;;4997310;28;20185;-91
2022/11/26 05:50:32;;;;;;;50.77;24.77;;;3.40;96.40;;;;;;4997388;28;20294;-91
2022/11/26 05:52:58;;;;;;;53.03;24.00;;;3.60;96.50;;;;;;4995964;28;20179;-90
2022/11/26 05:55:23;;;;;;;45.43;23.70;;;3.60;96.50;;;;;;4996014;28;20198;-91
2022/11/26 05:57:49;;;;;;;43.30;25.30;;;3.60;96.60;;;;;;4996413;28;20179;-91
2022/11/26 06:00:15;;;;;;;41.33;24.47;;;3.70;96.60;;;;;;4997607;28;20187;-91
2022/11/26 06:02:41;;;;;;;52.70;25.10;;;3.80;96.60;;;;;;4995608;28;20244;-91
2022/11/26 06:05:07;;;;;;;51.70;25.43;;;3.90;96.60;;;;;;4995718;28;20209;-91
2022/11/26 06:07:36;;;;;;;43.50;25.17;;;3.90;96.60;;;;;;4996062;28;20231;-91
2022/11/26 06:10:03;;;;;;;56.93;26.47;;;4.00;96.60;;;;;;4995883;28;20288;-91
2022/11/26 06:12:29;;;;;;;52.87;26.60;;;3.90;96.60;;;;;;4995683;28;20193;-91
2022/11/26 06:14:54;;;;;;;45.30;24.27;;;3.90;96.60;;;;;;4995931;28;20203;-91
2022/11/26 06:17:20;;;;;;;54.20;26.40;;;3.90;96.60;;;;;;4996404;28;20185;-91
2022/11/26 06:19:46;;;;;;;55.80;24.60;;;4.00;96.70;;;;;;4995725;28;20399;-91
2022/11/26 06:22:11;;;;;;;53.90;25.13;;;4.00;96.70;;;;;;4996540;28;20175;-91
2022/11/26 06:24:37;;;;;;;41.70;25.30;;;3.90;96.70;;;;;;4996714;28;20235;-91
2022/11/26 06:27:02;;;;;;;49.37;25.33;;;3.90;96.70;;;;;;4995215;28;20192;-91
2022/11/26 06:29:28;;;;;;;47.70;24.43;;;4.00;96.70;;;;;;4995636;28;20209;-91
2022/11/26 06:31:54;;;;;;;49.50;27.40;;;4.00;96.70;;;;;;4995553;28;20550;-91
2022/11/26 06:34:20;;;;;;;51.50;26.83;;;4.00;96.70;;;;;;4995407;28;20182;-91
2022/11/26 06:36:45;;;;;;;50.20;26.50;;;4.00;96.70;;;;;;4995827;28;20223;-91
2022/11/26 06:39:11;;;;;;;55.17;27.60;;;4.00;96.70;;;;;;4996354;28;20174;-91
2022/11/26 06:41:37;;;;;;;49.90;26.90;;;4.00;96.70;;;;;;4995012;28;20186;-91
2022/11/26 06:44:03;;;;;;;54.63;27.77;;;4.00;96.70;;;;;;4995485;28;20184;-91
2022/11/26 06:46:28;;;;;;;56.50;27.23;;;4.00;96.70;;;;;;4995326;28;20201;-91
2022/11/26 06:48:54;;;;;;;50.07;28.57;;;3.90;96.70;;;;;;4995387;28;20180;-91
2022/11/26 06:51:20;;;;;;;46.70;27.70;;;3.90;96.70;;;;;;4995314;28;20210;-91
2022/11/26 06:53:47;;;;;;;60.00;31.03;;;3.80;96.70;;;;;;4994836;28;20688;-91
2022/11/26 06:56:15;;;;;;;54.70;28.73;;;3.90;96.70;;;;;;4995043;28;20194;-91
2022/11/26 06:58:40;;;;;;;60.40;31.70;;;3.80;96.80;;;;;;4995718;28;20626;-91
2022/11/26 07:01:11;;;;;;;56.87;30.33;;;3.90;96.80;;;;;;4994993;28;20187;-91
2022/11/26 07:03:37;;;;;;;63.60;30.37;;;3.80;96.70;;;;;;4995682;28;20261;-91
2022/11/26 07:06:03;;;;;;;65.87;31.17;;;3.80;96.80;;;;;;4994792;28;20237;-91
2022/11/26 07:08:29;;;;;;;61.30;30.87;;;3.80;96.80;;;;;;4994530;28;20319;-91
2022/11/26 07:10:55;;;;;;;62.13;30.27;;;3.80;96.80;;;;;;4995208;28;20672;-91
2022/11/26 07:13:20;;;;;;;56.03;29.00;;;3.90;96.80;;;;;;4994466;28;20261;-91
2022/11/26 07:15:46;;;;;;;65.37;29.50;;;4.00;96.90;;;;;;4994523;28;20297;-91
2022/11/26 07:18:12;;;;;;;62.87;30.60;;;4.00;96.90;;;;;;4995318;28;20303;-91
2022/11/26 07:20:37;;;;;;;59.37;29.20;;;4.10;96.90;;;;;;4994437;28;20324;-91
2022/11/26 07:23:03;;;;;;;69.57;38.00;;;4.10;96.90;;;;;;4994922;28;20178;-91
2022/11/26 07:25:29;;;;;;;96.77;37.30;;;4.10;96.90;;;;;;4995116;28;20199;-91
2022/11/26 07:27:55;;;;;;;69.37;35.97;;;4.20;96.90;;;;;;4994261;28;20269;-90
2022/11/26 07:30:21;;;;;;;80.73;37.50;;;4.30;96.90;;;;;;4993672;28;20876;-90
2022/11/26 07:32:46;;;;;;;73.30;36.50;;;4.30;96.90;;;;;;4995476;28;20701;-91
2022/11/26 07:35:12;;;;;;;71.37;39.13;;;4.30;97.00;;;;;;4994922;28;20198;-91
2022/11/26 07:37:37;;;;;;;73.50;37.67;;;4.30;97.00;;;;;;4994023;28;20269;-90
2022/11/26 07:40:05;;;;;;;80.10;38.90;;;4.30;97.00;;;;;;4993678;28;20219;-90
2022/11/26 07:42:32;;;;;;;70.07;36.17;;;4.40;97.00;;;;;;4994323;28;20669;-91
2022/11/26 07:44:58;;;;;;;58.73;37.03;;;4.40;97.00;;;;;;4993947;28;20286;-90
2022/11/26 07:47:23;;;;;;;75.23;37.53;;;4.50;97.00;;;;;;4994548;28;20184;-90
2022/11/26 07:49:49;;;;;;;67.80;38.63;;;4.50;97.00;;;;;;4996784;28;20243;-90
2022/11/26 07:52:15;;;;;;;61.87;38.53;;;4.50;97.00;;;;;;4994633;28;20213;-90
2022/11/26 07:54:40;;;;;;;72.93;38.03;;;4.60;97.00;;;;;;4994893;28;20186;-91
2022/11/26 07:57:06;;;;;;;70.23;38.63;;;4.60;97.00;;;;;;4994365;28;20174;-90
2022/11/26 07:59:32;;;;;;;67.50;38.57;;;4.50;97.00;;;;;;4996177;28;20621;-90
2022/11/26 08:01:57;;;;;;;71.90;39.40;;;4.50;97.00;;;;;;4994911;28;20223;-90
2022/11/26 08:04:23;;;;;;;80.40;40.67;;;4.60;97.10;;;;;;4995547;28;20215;-91
2022/11/26 08:06:48;;;;;;;72.90;40.20;;;4.60;97.10;;;;;;4995074;28;20681;-90
2022/11/26 08:09:14;;;;;;;78.50;39.23;;;4.60;97.10;;;;;;4995263;28;20253;-91
2022/11/26 08:11:40;;;;;;;68.60;40.10;;;4.60;97.10;;;;;;4995492;28;20181;-91
2022/11/26 08:14:08;;;;;;;73.83;40.27;;;4.70;97.10;;;;;;4997249;28;20179;-91
2022/11/26 08:16:34;;;;;;;66.97;36.13;;;4.70;97.10;;;;;;4995561;28;20296;-91
2022/11/26 08:19:03;;;;;;;65.67;38.13;;;4.70;97.10;;;;;;4994639;28;20663;-90
2022/11/26 08:21:29;;;;;;;57.93;36.23;;;4.70;97.10;;;;;;4994333;28;20636;-91
2022/11/26 08:23:55;;;;;;;74.13;40.93;;;4.70;97.10;;;;;;4994634;28;20183;-90
2022/11/26 08:26:21;;;;;;;67.37;39.70;;;4.80;97.10;;;;;;4993929;28;20237;-90
2022/11/26 08:28:47;;;;;;;75.13;40.53;;;4.70;97.10;;;;;;4995879;28;20563;-92
2022/11/26 08:31:14;;;;;;;80.53;38.40;;;4.80;97.10;;;;;;4995201;28;20199;-90
2022/11/26 08:33:40;;;;;;;68.23;37.93;;;4.70;97.10;;;;;;4994699;28;20217;-90
2022/11/26 08:36:07;;;;;;;76.30;39.37;;;4.80;97.10;;;;;;4994492;28;20232;-91
2022/11/26 08:38:33;;;;;;;72.83;39.10;;;4.80;97.10;;;;;;4994106;28;20173;-90
2022/11/26 08:41:00;;;;;;;71.10;36.93;;;4.80;97.10;;;;;;4994092;28;20266;-90
2022/11/26 08:43:26;;;;;;;73.60;36.87;;;4.80;97.10;;;;;;4995053;28;20281;-90
2022/11/26 08:45:54;;;;;;;80.20;36.90;;;4.80;97.10;;;;;;4995288;28;20197;-90
2022/11/26 08:48:19;;;;;;;72.90;36.87;;;4.80;97.10;;;;;;4994281;28;20198;-90
2022/11/26 08:50:45;;;;;;;70.47;35.93;;;4.70;97.10;;;;;;4994566;28;20211;-90
2022/11/26 08:53:11;;;;;;;70.50;37.00;;;4.70;97.10;;;;;;4994212;28;20676;-90
2022/11/26 08:55:36;;;;;;;73.70;38.97;;;4.80;97.10;;;;;;4994086;28;20237;-90
2022/11/26 08:58:02;;;;;;;75.30;38.63;;;4.70;97.20;;;;;;4993819;28;20188;-92
2022/11/26 09:00:27;;;;;;;77.20;40.17;;;4.80;97.20;;;;;;4993715;28;20235;-91
2022/11/26 09:02:53;;;;;;;76.03;39.00;;;4.80;97.20;;;;;;4994337;28;20273;-90
2022/11/26 09:05:18;;;;;;;81.80;37.50;;;4.80;97.20;;;;;;4993710;28;20202;-90
2022/11/26 09:07:44;;;;;;;88.20;38.30;;;4.80;97.20;;;;;;4993754;28;20228;-91
2022/11/26 09:10:10;;;;;;;74.13;34.73;;;4.80;97.20;;;;;;4996043;28;20229;-90
2022/11/26 09:12:35;;;;;;;68.77;32.70;;;4.80;97.20;;;;;;4994754;28;20175;-90
2022/11/26 09:15:01;;;;;;;70.63;36.00;;;4.80;97.20;;;;;;4996258;28;20202;-91
2022/11/26 09:17:27;;;;;;;60.00;33.87;;;4.80;97.20;;;;;;4995513;28;20181;-91
2022/11/26 09:19:52;;;;;;;76.23;35.67;;;4.80;97.20;;;;;;4995803;28;20286;-90
2022/11/26 09:22:18;;;;;;;74.37;35.33;;;4.80;97.20;;;;;;4995505;28;20647;-91
2022/11/26 09:24:43;;;;;;;75.63;33.10;;;4.90;97.20;;;;;;4996322;28;20541;-90
2022/11/26 09:27:10;;;;;;;77.23;34.57;;;4.90;97.20;;;;;;4995539;28;20550;-91
2022/11/26 09:29:36;;;;;;;79.80;34.07;;;4.90;97.20;;;;;;4995657;28;20207;-91
2022/11/26 09:32:02;;;;;;;83.43;37.13;;;4.90;97.20;;;;;;4995278;28;20734;-90
2022/11/26 09:34:28;;;;;;;73.60;35.17;;;4.90;97.20;;;;;;4994862;28;20177;-90
2022/11/26 09:36:54;;;;;;;87.07;36.07;;;5.00;97.30;;;;;;4995877;28;20663;-90
2022/11/26 09:39:19;;;;;;;92.27;35.70;;;5.00;97.30;;;;;;4998679;28;20617;-90
2022/11/26 09:42:13;;;;;;;94.40;39.03;;;5.00;97.30;;;;;;4998288;28;20184;-90
2022/11/26 09:45:06;;;;;;;94.17;39.33;;;5.00;97.30;;;;;;4998952;28;20542;-91
2022/11/26 09:47:44;;;;;;;88.13;41.93;;;5.10;97.30;;;;;;4997947;28;20191;-90
2022/11/26 09:50:10;;;;;;;74.17;35.77;;;5.10;97.30;;;;;;4997928;28;20208;-91
2022/11/26 09:52:41;;;;;;;83.33;37.90;;;5.00;97.30;;;;;;4998202;28;20177;-91
2022/11/26 09:55:20;;;;;;;82.93;36.60;;;5.10;97.30;;;;;;4999429;28;20292;-90
2022/11/26 09:57:54;;;;;;;90.90;35.17;;;5.20;97.30;;;;;;4998972;28;20241;-90
2022/11/26 10:00:22;;;;;;;84.47;36.10;;;5.20;97.30;;;;;;4998886;28;20762;-90
2022/11/26 10:02:51;;;;;;;91.10;37.17;;;5.20;97.40;;;;;;4998468;28;20280;-91
2022/11/26 10:05:17;;;;;;;89.73;38.13;;;5.30;97.40;;;;;;4998289;28;20228;-90
2022/11/26 10:08:13;;;;;;;91.73;37.90;;;5.20;97.30;;;;;;4997456;28;20194;-90
2022/11/26 10:10:55;;;;;;;82.50;38.10;;;5.30;97.40;;;;;;4997980;28;20296;-91
2022/11/26 10:13:35;;;;;;;86.80;38.00;;;5.30;97.40;;;;;;4997531;28;20181;-89
2022/11/26 10:16:26;;;;;;;104.70;38.80;;;5.30;97.30;;;;;;4997573;28;20205;-90
2022/11/26 10:19:26;;;;;;;79.40;37.50;;;5.30;97.40;;;;;;4998312;28;20169;-90
2022/11/26 10:21:54;;;;;;;84.37;36.70;;;5.30;97.40;;;;;;4997336;28;20178;-90
2022/11/26 10:24:37;;;;;;;89.70;40.27;;;5.40;97.40;;;;;;4997495;28;20176;-91
2022/11/26 10:27:17;;;;;;;96.83;38.87;;;5.40;97.40;;;;;;4998023;28;20211;-90
2022/11/26 10:29:48;;;;;;;89.13;39.03;;;5.40;97.40;;;;;;4997084;28;20266;-90
2022/11/26 10:32:25;;;;;;;88.83;39.27;;;5.40;97.40;;;;;;4997337;28;20177;-92
2022/11/26 10:34:53;;;;;;;96.40;41.27;;;5.50;97.40;;;;;;4999407;28;20209;-89
2022/11/26 10:37:22;;;;;;;100.87;40.23;;;5.50;97.40;;;;;;4998503;28;20215;-89
2022/11/26 10:39:48;;;;;;;91.60;39.60;;;5.50;97.40;;;;;;4997755;28;20186;-90
2022/11/26 10:42:17;;;;;;;77.07;39.90;;;5.50;97.40;;;;;;4996064;28;20190;-90
2022/11/26 10:44:44;;;;;;;95.77;42.83;;;5.60;97.40;;;;;;4995851;28;20275;-90
2022/11/26 10:47:26;;;;;;;83.73;39.53;;;5.60;97.40;;;;;;4996176;28;20682;-91
2022/11/26 10:50:11;;;;;;;95.67;42.10;;;5.60;97.40;;;;;;4996801;28;20280;-90
2022/11/26 10:52:38;;;;;;;85.33;39.43;;;5.60;97.40;;;;;;4996640;28;20166;-90
2022/11/26 10:55:27;;;;;;;95.07;44.07;;;5.60;97.40;;;;;;4995907;28;20208;-90
2022/11/26 10:58:15;;;;;;;83.83;40.00;;;5.60;97.40;;;;;;4995340;28;20175;-91
2022/11/26 11:00:52;;;;;;;104.97;43.63;;;5.70;97.50;;;;;;4995417;28;20189;-91
2022/11/26 11:03:23;;;;;;;99.13;44.07;;;5.70;97.40;;;;;;4996313;28;20683;-91
2022/11/26 11:05:49;;;;;;;100.33;44.23;;;5.80;97.50;;;;;;4994612;28;20209;-90
2022/11/26 11:08:29;;;;;;;99.63;47.27;;;5.90;97.50;;;;;;4993984;28;20322;-91
2022/11/26 11:10:58;;;;;;;96.40;44.97;;;5.80;97.40;;;;;;4994038;28;20241;-90
2022/11/26 11:13:44;;;;;;;104.43;45.93;;;5.90;97.40;;;;;;4994220;28;20184;-90
2022/11/26 11:16:11;;;;;;;105.37;45.87;;;5.90;97.40;;;;;;4993895;28;20288;-90
2022/11/26 11:18:48;;;;;;;96.37;42.37;;;5.90;97.50;;;;;;4994151;28;20670;-89
2022/11/26 11:21:16;;;;;;;122.77;46.37;;;5.90;97.50;;;;;;4995408;28;20181;-92
2022/11/26 11:23:42;;;;;;;119.87;47.57;;;6.00;97.50;;;;;;4995261;28;20194;-90
2022/11/26 11:26:12;;;;;;;108.23;44.77;;;6.00;97.50;;;;;;4999337;28;20202;-90
2022/11/26 11:28:42;;;;;;;111.83;45.00;;;6.10;97.50;;;;;;4993880;28;20185;-90
2022/11/26 11:31:16;;;;;;;109.47;45.53;;;6.20;97.50;;;;;;4994321;28;20208;-90
2022/11/26 11:33:42;;;;;;;115.90;44.87;;;6.30;97.50;;;;;;4993897;28;20168;-90
2022/11/26 11:36:12;;;;;;;122.33;47.00;;;6.30;97.50;;;;;;4994495;28;20205;-90
2022/11/26 11:38:50;;;;;;;136.07;49.87;;;6.30;97.50;;;;;;4993439;28;20630;-91
2022/11/26 11:41:26;;;;;;;129.67;43.60;;;6.30;97.50;;;;;;4993242;28;20606;-90
2022/11/26 11:44:16;;;;;;;119.90;45.53;;;6.30;97.50;;;;;;4994608;28;20253;-91
2022/11/26 11:47:13;;;;;;;133.03;45.47;;;6.30;97.50;;;;;;4994570;28;20198;-90
2022/11/26 11:49:47;;;;;;;129.80;44.03;;;6.30;97.50;;;;;;4999826;28;20210;-89
2022/11/26 11:52:33;;;;;;;123.83;43.00;;;6.30;97.50;;;;;;4993336;28;20178;-90
2022/11/26 11:55:15;;;;;;;129.47;45.40;;;6.30;97.50;;;;;;4994038;28;20205;-89
2022/11/26 11:57:46;;;;;;;140.60;44.00;;;6.30;97.50;;;;;;4993034;28;20251;-89
2022/11/26 12:00:27;;;;;;;134.40;43.13;;;6.30;97.50;;;;;;4992419;28;20182;-89
2022/11/26 12:03:30;;;;;;;135.20;43.60;;;6.40;97.50;;;;;;4992927;28;20184;-89
2022/11/26 12:06:18;;;;;;;112.77;38.43;;;6.40;97.50;;;;;;4993981;28;20691;-89
2022/11/26 12:09:01;;;;;;;134.37;40.30;;;6.30;97.50;;;;;;4993324;28;20201;-90
2022/11/26 12:11:30;;;;;;;128.47;42.60;;;6.30;97.50;;;;;;4992995;28;20244;-87
2022/11/26 12:14:06;;;;;;;125.10;40.43;;;6.30;97.50;;;;;;4993248;28;20181;-89
2022/11/26 12:16:37;;;;;;;152.77;47.40;;;6.30;97.50;;;;;;4993142;28;20754;-88
2022/11/26 12:19:11;;;;;;;154.80;44.57;;;6.40;97.50;;;;;;4992839;28;20261;-88
2022/11/26 12:21:46;;;;;;;154.63;46.67;;;6.30;97.50;;;;;;4993339;28;20264;-91
2022/11/26 12:24:50;;;;;;;157.13;47.57;;;6.30;97.50;;;;;;4999099;28;20174;-88
2022/11/26 12:27:24;;;;;;;147.43;45.53;;;6.30;97.50;;;;;;4978319;28;20699;-89
2022/11/26 12:29:56;;;;;;;146.00;43.30;;;6.30;97.50;;;;;;4989762;28;20209;-89
2022/11/26 12:32:26;;;;;;;173.03;48.23;;;6.30;97.50;;;;;;4993281;28;20177;-89
2022/11/26 12:34:56;;;;;;;179.03;49.43;;;6.30;97.50;;;;;;4992566;28;20176;-89
2022/11/26 12:37:23;;;;;;;164.37;47.40;;;6.30;97.50;;;;;;4993228;28;20178;-90
2022/11/26 12:40:05;;;;;;;173.87;49.60;;;6.30;97.50;;;;;;4992845;28;20640;-87
2022/11/26 12:42:49;;;;;;;183.10;47.93;;;6.30;97.50;;;;;;4992574;28;20174;-90
2022/11/26 12:45:53;;;;;;;189.50;52.43;;;6.30;97.50;;;;;;4992536;28;20201;-90
2022/11/26 12:48:25;;;;;;;187.90;45.87;;;6.30;97.50;;;;;;4993323;28;20186;-89
2022/11/26 12:51:29;;;;;;;184.63;47.80;;;6.30;97.50;;;;;;4992389;28;20212;-90